• Join FlightAware (Why Join?)
  • Login
  • US Flag 
03:26PM EST


 

Airport Tracker/Info


-or-


 

Live Flight TrackerFlight Track Log ✈ UAL4550 ✈ 26-Apr-2013 ✈ KIAH - KMLU

Flight Track Log - Related Links

Times and Time Zones

All times are in EDT time to prevent confusion due to time zone crossing. See the UAL4550 flight status page for this flight to view local times or setup timezone preferences in your user account.

Time Position Orientation Groundspeed Altitude Reporting Facility
EDT Latitude Longitude Course Direction KTS MPH feet Rate Location/Type
08:26PM 29.9786 -95.2981 36° Northeast 178 205 700  Level Houston Center
08:27PM 30.0586 -95.2547 25° Northeast 270 311 2,200 1,080 Climbing Houston Center
08:28PM 30.0906 -95.2386 24° Northeast 260 299 2,800 1,140 Climbing Houston Center
08:28PM 30.1361 -95.2089 29° Northeast 276 318 3,500 960 Climbing Houston Center
08:29PM 30.3135 -95.0690 33° Northeast  Level FlightAware Approximate
08:29PM 30.1558 -95.1972 27° Northeast 266 306 3,800  Level Houston Center
08:29PM 30.1972 -95.1653 34° Northeast 284 327 4,600 1,200 Climbing Houston Center
08:30PM 30.3966 -95.0027 35° Northeast  Level FlightAware Approximate
08:30PM 30.2228 -95.1464 33° Northeast 285 328 5,100  Level Houston Center
08:30PM 30.2678 -95.1106 35° Northeast 286 329 6,200 1,440 Climbing Houston Center
08:31PM 30.4780 -94.9405 36° Northeast  Level FlightAware Approximate
08:31PM 30.2897 -95.0947 32° Northeast 288 331 6,600  Level Houston Center
08:32PM 30.3744 -95.0300 33° Northeast 304 350 8,500 1,620 Climbing Houston Center
08:33PM 30.4517 -94.9700 34° Northeast 318 366 10,000 1,140 Climbing Houston Center
08:34PM 30.5381 -94.9036 33° Northeast 373 429 10,900 1,260 Climbing Houston Center
08:35PM 30.6278 -94.8311 35° Northeast 389 448 12,700 1,800 Climbing Houston Center
08:36PM 30.6958 -94.7336 51° Northeast 389 448 14,700 1,800 Climbing Houston Center
08:37PM 30.7631 -94.6369 51° Northeast 388 447 16,500 1,620 Climbing Houston Center
08:38PM 30.8294 -94.5403 51° Northeast 385 443 18,100 1,740 Climbing Houston Center
08:39PM 30.9122 -94.4214 51° Northeast 397 457 20,100 1,320 Climbing Houston Center
08:40PM 30.9828 -94.3183 51° Northeast 406 467 20,900 420 Climbing Houston Center
08:41PM 31.0575 -94.2089 51° Northeast 427 491 21,000  Climbing Houston Center
08:42PM 31.1361 -94.0956 51° Northeast 445 512 21,000  Level Houston Center
08:43PM 31.2147 -93.9811 51° Northeast 452 520 21,000  Level Houston Center
08:44PM 31.3078 -93.8453 51° Northeast 449 517 21,000  Level Houston Center
08:45PM 31.3858 -93.7322 51° Northeast 446 513 21,000  Level Houston Center
08:46PM 31.4622 -93.6186 52° Northeast 446 513 21,000  Level Houston Center
08:47PM 31.5364 -93.5103 51° Northeast 447 514 21,000  Level Houston Center
08:48PM 31.6153 -93.3942 51° Northeast 450 518 21,000  Level Houston Center
08:49PM 31.6911 -93.2797 52° Northeast 446 513 21,000  Level Houston Center
08:50PM 31.7836 -93.1417 52° Northeast 447 514 21,000 -300 Level Houston Center
08:51PM 31.8617 -93.0267 51° Northeast 447 514 20,400 -1,080 Descending Houston Center
08:52PM 31.9375 -92.9111 52° Northeast 445 512 18,800 -1,500 Descending Houston Center
08:53PM 32.0097 -92.8011 52° Northeast 427 491 17,300 -1,620 Descending Houston Center
08:54PM 32.0814 -92.6939 52° Northeast 417 480 15,500 -1,740 Descending Houston Center
08:55PM 32.1478 -92.5911 53° Northeast 398 458 13,800 -1,500 Descending Houston Center
08:57PM 32.2094 -92.5000 51° Northeast 361 415 12,400 -1,560 Descending Houston Center
08:58PM 32.2544 -92.4136 58° Northeast 314 361 10,700 -1,680 Descending Houston Center